sensor_id;sensor_type;location;lat;lon;timestamp;P1;durP1;ratioP1;P2;durP2;ratioP2
22764;SDS011;11549;50.852;3.816;2022-10-23T09:20:54;10.80;;;4.82;;
22764;SDS011;11549;50.852;3.816;2022-10-23T09:23:24;12.88;;;4.68;;
22764;SDS011;11549;50.852;3.816;2022-10-23T09:25:52;10.23;;;4.60;;
22764;SDS011;11549;50.852;3.816;2022-10-23T09:28:23;6.93;;;3.70;;
22764;SDS011;11549;50.852;3.816;2022-10-23T09:30:53;9.02;;;3.88;;
22764;SDS011;11549;50.852;3.816;2022-10-23T09:33:33;9.40;;;3.88;;
22764;SDS011;11549;50.852;3.816;2022-10-23T09:36:05;9.82;;;3.90;;
22764;SDS011;11549;50.852;3.816;2022-10-23T09:38:35;11.05;;;4.50;;
22764;SDS011;11549;50.852;3.816;2022-10-23T09:41:06;8.90;;;4.03;;
22764;SDS011;11549;50.852;3.816;2022-10-23T09:43:40;10.88;;;4.43;;
22764;SDS011;11549;50.852;3.816;2022-10-23T09:46:09;10.07;;;4.00;;
22764;SDS011;11549;50.852;3.816;2022-10-23T09:48:42;9.18;;;3.75;;
22764;SDS011;11549;50.852;3.816;2022-10-23T09:51:16;11.32;;;4.00;;
22764;SDS011;11549;50.852;3.816;2022-10-23T09:53:48;10.65;;;4.10;;
22764;SDS011;11549;50.852;3.816;2022-10-23T09:56:25;8.88;;;4.28;;
22764;SDS011;11549;50.852;3.816;2022-10-23T09:58:56;9.38;;;4.25;;
22764;SDS011;11549;50.852;3.816;2022-10-23T10:01:31;10.38;;;4.13;;
22764;SDS011;11549;50.852;3.816;2022-10-23T10:04:01;11.05;;;4.20;;
22764;SDS011;11549;50.852;3.816;2022-10-23T10:06:32;9.25;;;4.28;;
22764;SDS011;11549;50.852;3.816;2022-10-23T10:09:01;9.77;;;4.03;;
22764;SDS011;11549;50.852;3.816;2022-10-23T10:11:36;10.07;;;4.40;;
22764;SDS011;11549;50.852;3.816;2022-10-23T10:14:23;10.23;;;4.57;;
22764;SDS011;11549;50.852;3.816;2022-10-23T10:17:14;8.77;;;3.60;;
22764;SDS011;11549;50.852;3.816;2022-10-23T10:19:53;10.55;;;3.90;;
22764;SDS011;11549;50.852;3.816;2022-10-23T10:22:45;8.27;;;4.22;;
22764;SDS011;11549;50.852;3.816;2022-10-23T10:25:19;8.30;;;3.90;;
22764;SDS011;11549;50.852;3.816;2022-10-23T10:27:53;8.68;;;4.22;;
22764;SDS011;11549;50.852;3.816;2022-10-23T10:30:33;9.52;;;4.32;;
22764;SDS011;11549;50.852;3.816;2022-10-23T10:44:09;7.68;;;3.88;;
22764;SDS011;11549;50.852;3.816;2022-10-23T10:46:52;9.68;;;4.70;;
22764;SDS011;11549;50.852;3.816;2022-10-23T10:49:26;7.47;;;4.22;;
22764;SDS011;11549;50.852;3.816;2022-10-23T10:52:13;11.35;;;4.90;;
22764;SDS011;11549;50.852;3.816;2022-10-23T10:54:50;10.07;;;4.97;;
22764;SDS011;11549;50.852;3.816;2022-10-23T10:57:30;10.20;;;5.03;;
22764;SDS011;11549;50.852;3.816;2022-10-23T11:00:05;10.85;;;4.45;;
22764;SDS011;11549;50.852;3.816;2022-10-23T11:02:41;8.93;;;4.95;;
22764;SDS011;11549;50.852;3.816;2022-10-23T11:05:16;11.05;;;5.32;;
22764;SDS011;11549;50.852;3.816;2022-10-23T11:07:55;10.10;;;5.25;;
22764;SDS011;11549;50.852;3.816;2022-10-23T11:10:34;13.50;;;5.50;;
22764;SDS011;11549;50.852;3.816;2022-10-23T11:13:12;11.70;;;5.68;;
22764;SDS011;11549;50.852;3.816;2022-10-23T11:15:51;12.10;;;5.53;;
22764;SDS011;11549;50.852;3.816;2022-10-23T11:18:28;13.32;;;5.78;;
22764;SDS011;11549;50.852;3.816;2022-10-23T11:21:02;12.30;;;5.85;;
22764;SDS011;11549;50.852;3.816;2022-10-23T11:26:35;12.23;;;6.13;;
22764;SDS011;11549;50.852;3.816;2022-10-23T11:29:17;13.55;;;5.68;;
22764;SDS011;11549;50.852;3.816;2022-10-23T11:32:10;14.18;;;5.82;;
22764;SDS011;11549;50.852;3.816;2022-10-23T11:37:40;14.13;;;6.30;;
22764;SDS011;11549;50.852;3.816;2022-10-23T11:40:16;11.07;;;5.63;;
22764;SDS011;11549;50.852;3.816;2022-10-23T11:42:49;11.30;;;4.85;;
22764;SDS011;11549;50.852;3.816;2022-10-23T11:45:27;11.55;;;5.10;;
22764;SDS011;11549;50.852;3.816;2022-10-23T11:47:59;9.77;;;4.70;;
22764;SDS011;11549;50.852;3.816;2022-10-23T11:50:31;10.38;;;4.78;;
22764;SDS011;11549;50.852;3.816;2022-10-23T11:53:02;10.82;;;5.03;;
22764;SDS011;11549;50.852;3.816;2022-10-23T11:59:25;12.73;;;5.13;;
22764;SDS011;11549;50.852;3.816;2022-10-23T12:01:58;9.95;;;5.00;;
22764;SDS011;11549;50.852;3.816;2022-10-23T12:04:32;9.93;;;5.00;;
22764;SDS011;11549;50.852;3.816;2022-10-23T12:07:15;9.38;;;4.82;;
22764;SDS011;11549;50.852;3.816;2022-10-23T12:10:18;14.73;;;5.15;;
22764;SDS011;11549;50.852;3.816;2022-10-23T12:12:59;8.60;;;4.35;;
22764;SDS011;11549;50.852;3.816;2022-10-23T12:15:33;9.75;;;4.30;;
22764;SDS011;11549;50.852;3.816;2022-10-23T12:18:12;9.40;;;4.43;;
22764;SDS011;11549;50.852;3.816;2022-10-23T12:20:49;8.98;;;4.03;;
22764;SDS011;11549;50.852;3.816;2022-10-23T12:23:41;9.48;;;3.70;;
22764;SDS011;11549;50.852;3.816;2022-10-23T12:29:22;6.30;;;3.42;;
22764;SDS011;11549;50.852;3.816;2022-10-23T12:36:24;10.00;;;4.05;;
22764;SDS011;11549;50.852;3.816;2022-10-23T12:39:23;9.98;;;3.35;;
22764;SDS011;11549;50.852;3.816;2022-10-23T12:42:21;7.05;;;3.10;;
22764;SDS011;11549;50.852;3.816;2022-10-23T12:45:16;8.73;;;3.25;;
22764;SDS011;11549;50.852;3.816;2022-10-23T12:50:52;6.45;;;2.72;;
22764;SDS011;11549;50.852;3.816;2022-10-23T12:53:24;6.72;;;3.22;;
22764;SDS011;11549;50.852;3.816;2022-10-23T12:55:55;5.28;;;2.60;;
22764;SDS011;11549;50.852;3.816;2022-10-23T12:58:28;5.35;;;2.70;;
22764;SDS011;11549;50.852;3.816;2022-10-23T13:00:58;6.53;;;2.92;;
22764;SDS011;11549;50.852;3.816;2022-10-23T13:03:29;5.38;;;2.80;;
22764;SDS011;11549;50.852;3.816;2022-10-23T13:05:59;7.25;;;2.80;;
22764;SDS011;11549;50.852;3.816;2022-10-23T13:08:33;6.70;;;2.38;;
22764;SDS011;11549;50.852;3.816;2022-10-23T13:13:41;5.30;;;2.72;;
22764;SDS011;11549;50.852;3.816;2022-10-23T13:18:53;5.93;;;2.78;;
22764;SDS011;11549;50.852;3.816;2022-10-23T13:21:23;6.47;;;3.38;;
22764;SDS011;11549;50.852;3.816;2022-10-23T13:23:55;7.68;;;2.78;;
22764;SDS011;11549;50.852;3.816;2022-10-23T13:26:27;5.32;;;2.80;;
22764;SDS011;11549;50.852;3.816;2022-10-23T13:29:00;8.10;;;3.00;;
22764;SDS011;11549;50.852;3.816;2022-10-23T13:31:35;5.38;;;2.67;;
22764;SDS011;11549;50.852;3.816;2022-10-23T13:34:13;6.28;;;3.03;;
22764;SDS011;11549;50.852;3.816;2022-10-23T13:36:58;7.68;;;2.75;;
22764;SDS011;11549;50.852;3.816;2022-10-23T13:39:30;7.72;;;2.70;;
22764;SDS011;11549;50.852;3.816;2022-10-23T13:42:04;8.18;;;2.55;;
22764;SDS011;11549;50.852;3.816;2022-10-23T13:44:39;6.63;;;2.65;;
22764;SDS011;11549;50.852;3.816;2022-10-23T13:47:10;8.77;;;3.10;;
22764;SDS011;11549;50.852;3.816;2022-10-23T13:49:39;6.32;;;2.67;;
22764;SDS011;11549;50.852;3.816;2022-10-23T13:52:08;6.43;;;3.00;;
22764;SDS011;11549;50.852;3.816;2022-10-23T13:54:39;6.53;;;2.78;;
22764;SDS011;11549;50.852;3.816;2022-10-23T13:59:50;5.82;;;2.92;;
22764;SDS011;11549;50.852;3.816;2022-10-23T14:02:19;5.95;;;2.47;;
22764;SDS011;11549;50.852;3.816;2022-10-23T14:04:50;7.63;;;3.10;;
22764;SDS011;11549;50.852;3.816;2022-10-23T14:07:18;8.10;;;2.85;;
22764;SDS011;11549;50.852;3.816;2022-10-23T14:09:48;6.53;;;2.80;;
22764;SDS011;11549;50.852;3.816;2022-10-23T14:12:16;9.88;;;2.85;;
22764;SDS011;11549;50.852;3.816;2022-10-23T14:14:49;4.82;;;2.70;;
22764;SDS011;11549;50.852;3.816;2022-10-23T14:17:18;8.27;;;2.72;;
22764;SDS011;11549;50.852;3.816;2022-10-23T14:19:46;6.68;;;3.30;;
22764;SDS011;11549;50.852;3.816;2022-10-23T14:22:15;7.47;;;2.78;;
22764;SDS011;11549;50.852;3.816;2022-10-23T14:24:44;6.82;;;2.80;;
22764;SDS011;11549;50.852;3.816;2022-10-23T14:27:14;9.25;;;3.30;;
22764;SDS011;11549;50.852;3.816;2022-10-23T14:29:42;5.22;;;2.95;;
22764;SDS011;11549;50.852;3.816;2022-10-23T14:32:10;5.28;;;2.70;;
22764;SDS011;11549;50.852;3.816;2022-10-23T14:34:39;6.35;;;2.95;;
22764;SDS011;11549;50.852;3.816;2022-10-23T14:37:08;7.15;;;2.63;;
22764;SDS011;11549;50.852;3.816;2022-10-23T14:39:37;8.45;;;3.00;;
22764;SDS011;11549;50.852;3.816;2022-10-23T14:42:05;6.90;;;2.92;;
22764;SDS011;11549;50.852;3.816;2022-10-23T14:44:35;6.25;;;2.70;;
22764;SDS011;11549;50.852;3.816;2022-10-23T14:47:04;5.93;;;2.97;;
22764;SDS011;11549;50.852;3.816;2022-10-23T14:49:33;6.50;;;3.03;;
22764;SDS011;11549;50.852;3.816;2022-10-23T14:52:02;8.88;;;3.20;;
22764;SDS011;11549;50.852;3.816;2022-10-23T14:54:30;10.02;;;3.00;;
22764;SDS011;11549;50.852;3.816;2022-10-23T14:57:00;7.13;;;3.35;;
22764;SDS011;11549;50.852;3.816;2022-10-23T14:59:29;8.75;;;2.88;;
22764;SDS011;11549;50.852;3.816;2022-10-23T15:01:59;9.75;;;3.15;;
22764;SDS011;11549;50.852;3.816;2022-10-23T15:04:27;11.18;;;3.25;;
22764;SDS011;11549;50.852;3.816;2022-10-23T15:06:55;6.80;;;3.00;;
22764;SDS011;11549;50.852;3.816;2022-10-23T15:09:23;8.90;;;3.15;;
22764;SDS011;11549;50.852;3.816;2022-10-23T15:11:52;6.80;;;3.10;;
22764;SDS011;11549;50.852;3.816;2022-10-23T15:14:20;8.18;;;3.30;;
22764;SDS011;11549;50.852;3.816;2022-10-23T15:16:48;7.90;;;3.28;;
22764;SDS011;11549;50.852;3.816;2022-10-23T15:19:18;6.88;;;3.15;;
22764;SDS011;11549;50.852;3.816;2022-10-23T15:21:46;8.30;;;3.50;;
22764;SDS011;11549;50.852;3.816;2022-10-23T15:24:15;7.32;;;3.30;;
22764;SDS011;11549;50.852;3.816;2022-10-23T15:26:43;6.57;;;3.08;;
22764;SDS011;11549;50.852;3.816;2022-10-23T15:29:12;5.75;;;3.20;;
22764;SDS011;11549;50.852;3.816;2022-10-23T15:31:42;7.50;;;3.55;;
22764;SDS011;11549;50.852;3.816;2022-10-23T15:34:12;7.10;;;3.08;;
22764;SDS011;11549;50.852;3.816;2022-10-23T15:36:43;7.55;;;3.45;;
22764;SDS011;11549;50.852;3.816;2022-10-23T15:39:13;7.43;;;3.17;;
22764;SDS011;11549;50.852;3.816;2022-10-23T15:41:43;6.18;;;3.13;;
22764;SDS011;11549;50.852;3.816;2022-10-23T15:44:13;7.60;;;3.05;;
22764;SDS011;11549;50.852;3.816;2022-10-23T15:46:43;8.68;;;3.25;;
22764;SDS011;11549;50.852;3.816;2022-10-23T15:49:11;8.18;;;3.42;;
22764;SDS011;11549;50.852;3.816;2022-10-23T15:51:40;9.85;;;3.35;;
22764;SDS011;11549;50.852;3.816;2022-10-23T15:54:12;8.60;;;3.65;;
22764;SDS011;11549;50.852;3.816;2022-10-23T15:56:44;7.40;;;3.20;;
22764;SDS011;11549;50.852;3.816;2022-10-23T15:59:14;8.95;;;3.60;;
22764;SDS011;11549;50.852;3.816;2022-10-23T16:01:50;6.18;;;3.33;;
22764;SDS011;11549;50.852;3.816;2022-10-23T16:04:18;9.63;;;3.90;;
22764;SDS011;11549;50.852;3.816;2022-10-23T16:06:47;9.35;;;3.58;;
22764;SDS011;11549;50.852;3.816;2022-10-23T16:09:17;9.60;;;3.75;;
22764;SDS011;11549;50.852;3.816;2022-10-23T16:11:45;7.60;;;3.30;;
22764;SDS011;11549;50.852;3.816;2022-10-23T16:14:14;9.45;;;3.95;;
22764;SDS011;11549;50.852;3.816;2022-10-23T16:16:43;10.68;;;3.80;;
22764;SDS011;11549;50.852;3.816;2022-10-23T16:19:12;9.85;;;3.70;;
22764;SDS011;11549;50.852;3.816;2022-10-23T16:21:40;8.85;;;3.47;;
22764;SDS011;11549;50.852;3.816;2022-10-23T16:24:09;8.00;;;3.70;;
22764;SDS011;11549;50.852;3.816;2022-10-23T16:26:39;6.63;;;3.17;;
22764;SDS011;11549;50.852;3.816;2022-10-23T16:29:07;10.60;;;3.95;;
22764;SDS011;11549;50.852;3.816;2022-10-23T16:31:36;8.07;;;4.05;;
22764;SDS011;11549;50.852;3.816;2022-10-23T16:34:05;8.90;;;4.32;;
22764;SDS011;11549;50.852;3.816;2022-10-23T16:36:34;11.15;;;4.03;;
22764;SDS011;11549;50.852;3.816;2022-10-23T16:39:05;8.43;;;3.95;;
22764;SDS011;11549;50.852;3.816;2022-10-23T16:41:35;9.43;;;3.88;;
22764;SDS011;11549;50.852;3.816;2022-10-23T16:44:05;9.27;;;3.78;;
22764;SDS011;11549;50.852;3.816;2022-10-23T16:46:34;11.82;;;4.25;;
22764;SDS011;11549;50.852;3.816;2022-10-23T16:49:05;8.63;;;4.32;;
22764;SDS011;11549;50.852;3.816;2022-10-23T16:51:35;8.30;;;3.83;;
22764;SDS011;11549;50.852;3.816;2022-10-23T16:54:03;6.50;;;3.50;;
22764;SDS011;11549;50.852;3.816;2022-10-23T16:56:32;7.28;;;3.75;;
22764;SDS011;11549;50.852;3.816;2022-10-23T16:59:00;8.68;;;3.83;;
22764;SDS011;11549;50.852;3.816;2022-10-23T17:01:30;10.23;;;4.00;;
22764;SDS011;11549;50.852;3.816;2022-10-23T17:03:59;7.88;;;4.25;;
22764;SDS011;11549;50.852;3.816;2022-10-23T17:06:29;7.15;;;4.75;;
22764;SDS011;11549;50.852;3.816;2022-10-23T17:08:59;10.68;;;5.80;;
22764;SDS011;11549;50.852;3.816;2022-10-23T17:11:28;8.73;;;4.72;;
22764;SDS011;11549;50.852;3.816;2022-10-23T17:13:59;6.93;;;3.97;;
22764;SDS011;11549;50.852;3.816;2022-10-23T17:16:31;7.82;;;3.35;;
22764;SDS011;11549;50.852;3.816;2022-10-23T17:19:02;10.95;;;4.15;;
22764;SDS011;11549;50.852;3.816;2022-10-23T17:21:51;11.07;;;5.40;;
22764;SDS011;11549;50.852;3.816;2022-10-23T17:24:21;8.38;;;3.53;;
22764;SDS011;11549;50.852;3.816;2022-10-23T17:26:50;10.05;;;3.70;;
22764;SDS011;11549;50.852;3.816;2022-10-23T17:29:19;13.20;;;4.38;;
22764;SDS011;11549;50.852;3.816;2022-10-23T17:31:49;15.55;;;5.03;;
22764;SDS011;11549;50.852;3.816;2022-10-23T17:34:18;11.65;;;5.07;;
22764;SDS011;11549;50.852;3.816;2022-10-23T17:36:49;13.63;;;4.80;;
22764;SDS011;11549;50.852;3.816;2022-10-23T17:39:19;11.30;;;3.03;;
22764;SDS011;11549;50.852;3.816;2022-10-23T17:41:49;7.47;;;2.25;;
22764;SDS011;11549;50.852;3.816;2022-10-23T17:44:18;7.07;;;2.13;;
22764;SDS011;11549;50.852;3.816;2022-10-23T17:46:49;6.43;;;1.90;;
22764;SDS011;11549;50.852;3.816;2022-10-23T17:49:19;4.20;;;1.30;;
22764;SDS011;11549;50.852;3.816;2022-10-23T17:51:49;4.63;;;1.90;;
22764;SDS011;11549;50.852;3.816;2022-10-23T17:54:18;5.63;;;2.40;;
22764;SDS011;11549;50.852;3.816;2022-10-23T17:56:46;4.78;;;1.88;;
22764;SDS011;11549;50.852;3.816;2022-10-23T17:59:15;5.85;;;2.88;;
22764;SDS011;11549;50.852;3.816;2022-10-23T18:01:45;7.15;;;2.58;;
22764;SDS011;11549;50.852;3.816;2022-10-23T18:04:16;6.55;;;2.60;;
22764;SDS011;11549;50.852;3.816;2022-10-23T18:06:46;4.68;;;2.10;;
22764;SDS011;11549;50.852;3.816;2022-10-23T18:09:16;6.20;;;2.58;;
22764;SDS011;11549;50.852;3.816;2022-10-23T18:11:44;5.95;;;2.33;;
22764;SDS011;11549;50.852;3.816;2022-10-23T18:14:14;5.57;;;1.60;;
22764;SDS011;11549;50.852;3.816;2022-10-23T18:16:43;5.05;;;2.10;;
22764;SDS011;11549;50.852;3.816;2022-10-23T18:19:12;5.72;;;1.80;;
22764;SDS011;11549;50.852;3.816;2022-10-23T18:21:42;4.07;;;1.42;;
22764;SDS011;11549;50.852;3.816;2022-10-23T18:24:11;5.88;;;1.80;;
22764;SDS011;11549;50.852;3.816;2022-10-23T18:26:39;5.82;;;1.83;;
22764;SDS011;11549;50.852;3.816;2022-10-23T18:29:08;5.03;;;1.63;;
22764;SDS011;11549;50.852;3.816;2022-10-23T18:31:42;7.03;;;3.60;;
22764;SDS011;11549;50.852;3.816;2022-10-23T18:34:15;7.90;;;2.08;;
22764;SDS011;11549;50.852;3.816;2022-10-23T18:36:49;6.22;;;1.88;;
22764;SDS011;11549;50.852;3.816;2022-10-23T18:39:19;6.90;;;1.85;;
22764;SDS011;11549;50.852;3.816;2022-10-23T18:41:49;4.72;;;1.63;;
22764;SDS011;11549;50.852;3.816;2022-10-23T18:44:20;7.57;;;1.90;;
22764;SDS011;11549;50.852;3.816;2022-10-23T18:46:49;4.18;;;1.70;;
22764;SDS011;11549;50.852;3.816;2022-10-23T18:49:18;4.78;;;1.70;;
22764;SDS011;11549;50.852;3.816;2022-10-23T18:51:47;6.10;;;1.63;;
22764;SDS011;11549;50.852;3.816;2022-10-23T18:54:20;7.05;;;2.17;;
22764;SDS011;11549;50.852;3.816;2022-10-23T18:56:48;5.40;;;2.15;;
22764;SDS011;11549;50.852;3.816;2022-10-23T18:59:18;7.30;;;1.80;;
22764;SDS011;11549;50.852;3.816;2022-10-23T19:01:47;5.32;;;1.65;;
22764;SDS011;11549;50.852;3.816;2022-10-23T19:04:16;7.93;;;2.08;;
22764;SDS011;11549;50.852;3.816;2022-10-23T19:06:44;6.15;;;2.00;;
22764;SDS011;11549;50.852;3.816;2022-10-23T19:09:16;5.78;;;2.00;;
22764;SDS011;11549;50.852;3.816;2022-10-23T19:11:45;6.30;;;1.83;;
22764;SDS011;11549;50.852;3.816;2022-10-23T19:14:13;4.18;;;1.50;;
22764;SDS011;11549;50.852;3.816;2022-10-23T19:16:43;6.15;;;1.80;;
22764;SDS011;11549;50.852;3.816;2022-10-23T19:19:21;6.28;;;2.05;;
22764;SDS011;11549;50.852;3.816;2022-10-23T19:21:52;9.18;;;1.85;;
22764;SDS011;11549;50.852;3.816;2022-10-23T19:24:24;5.65;;;1.92;;
22764;SDS011;11549;50.852;3.816;2022-10-23T19:26:57;5.43;;;1.60;;
22764;SDS011;11549;50.852;3.816;2022-10-23T19:29:27;5.30;;;2.00;;
22764;SDS011;11549;50.852;3.816;2022-10-23T19:31:56;6.70;;;2.10;;
22764;SDS011;11549;50.852;3.816;2022-10-23T19:34:25;6.63;;;2.15;;
22764;SDS011;11549;50.852;3.816;2022-10-23T19:36:53;5.75;;;1.85;;
22764;SDS011;11549;50.852;3.816;2022-10-23T19:39:23;7.72;;;2.72;;
22764;SDS011;11549;50.852;3.816;2022-10-23T19:41:52;8.50;;;2.13;;
22764;SDS011;11549;50.852;3.816;2022-10-23T19:44:20;7.90;;;1.90;;
22764;SDS011;11549;50.852;3.816;2022-10-23T19:46:49;5.43;;;2.00;;
22764;SDS011;11549;50.852;3.816;2022-10-23T19:49:17;5.72;;;2.00;;
22764;SDS011;11549;50.852;3.816;2022-10-23T19:51:46;7.00;;;1.73;;
22764;SDS011;11549;50.852;3.816;2022-10-23T19:54:17;7.57;;;1.70;;
22764;SDS011;11549;50.852;3.816;2022-10-23T19:56:47;4.65;;;1.65;;
22764;SDS011;11549;50.852;3.816;2022-10-23T19:59:16;5.10;;;1.45;;
22764;SDS011;11549;50.852;3.816;2022-10-23T20:01:44;4.60;;;1.60;;
22764;SDS011;11549;50.852;3.816;2022-10-23T20:04:15;9.75;;;1.85;;
22764;SDS011;11549;50.852;3.816;2022-10-23T20:06:44;6.80;;;1.70;;
22764;SDS011;11549;50.852;3.816;2022-10-23T20:09:12;5.88;;;1.13;;
22764;SDS011;11549;50.852;3.816;2022-10-23T20:11:41;9.95;;;1.42;;
22764;SDS011;11549;50.852;3.816;2022-10-23T20:14:12;7.60;;;1.70;;
22764;SDS011;11549;50.852;3.816;2022-10-23T20:16:41;6.72;;;1.73;;
22764;SDS011;11549;50.852;3.816;2022-10-23T20:19:12;8.18;;;1.90;;
22764;SDS011;11549;50.852;3.816;2022-10-23T20:21:44;6.32;;;1.85;;
22764;SDS011;11549;50.852;3.816;2022-10-23T20:24:14;8.00;;;2.17;;
22764;SDS011;11549;50.852;3.816;2022-10-23T20:26:44;6.10;;;1.98;;
22764;SDS011;11549;50.852;3.816;2022-10-23T20:29:18;6.43;;;1.80;;
22764;SDS011;11549;50.852;3.816;2022-10-23T20:31:47;10.13;;;2.05;;
22764;SDS011;11549;50.852;3.816;2022-10-23T20:34:15;8.48;;;2.25;;
22764;SDS011;11549;50.852;3.816;2022-10-23T20:36:45;6.70;;;1.80;;
22764;SDS011;11549;50.852;3.816;2022-10-23T20:39:16;6.90;;;2.00;;
22764;SDS011;11549;50.852;3.816;2022-10-23T20:41:46;9.32;;;2.10;;
22764;SDS011;11549;50.852;3.816;2022-10-23T20:44:15;10.63;;;2.22;;
22764;SDS011;11549;50.852;3.816;2022-10-23T20:46:45;7.70;;;2.00;;
22764;SDS011;11549;50.852;3.816;2022-10-23T20:49:14;7.35;;;1.60;;
22764;SDS011;11549;50.852;3.816;2022-10-23T20:51:43;6.75;;;2.00;;
22764;SDS011;11549;50.852;3.816;2022-10-23T20:54:11;9.45;;;2.17;;
22764;SDS011;11549;50.852;3.816;2022-10-23T20:56:39;5.43;;;2.10;;
22764;SDS011;11549;50.852;3.816;2022-10-23T20:59:09;8.27;;;2.30;;
22764;SDS011;11549;50.852;3.816;2022-10-23T21:01:40;8.23;;;2.80;;
22764;SDS011;11549;50.852;3.816;2022-10-23T21:04:10;8.88;;;2.85;;
22764;SDS011;11549;50.852;3.816;2022-10-23T21:06:39;7.95;;;2.70;;
22764;SDS011;11549;50.852;3.816;2022-10-23T21:09:28;7.60;;;2.40;;
22764;SDS011;11549;50.852;3.816;2022-10-23T21:11:57;8.27;;;2.85;;
22764;SDS011;11549;50.852;3.816;2022-10-23T21:14:25;7.88;;;2.60;;
22764;SDS011;11549;50.852;3.816;2022-10-23T21:16:55;7.35;;;2.53;;
22764;SDS011;11549;50.852;3.816;2022-10-23T21:19:24;8.70;;;2.90;;
22764;SDS011;11549;50.852;3.816;2022-10-23T21:21:52;8.38;;;2.88;;
22764;SDS011;11549;50.852;3.816;2022-10-23T21:24:21;11.63;;;3.65;;
22764;SDS011;11549;50.852;3.816;2022-10-23T21:26:49;14.00;;;3.60;;
22764;SDS011;11549;50.852;3.816;2022-10-23T21:29:17;7.82;;;3.20;;
22764;SDS011;11549;50.852;3.816;2022-10-23T21:31:50;9.45;;;2.72;;
22764;SDS011;11549;50.852;3.816;2022-10-23T21:36:49;11.02;;;3.10;;
22764;SDS011;11549;50.852;3.816;2022-10-23T21:39:38;9.18;;;3.20;;
22764;SDS011;11549;50.852;3.816;2022-10-23T21:42:06;11.38;;;3.70;;
22764;SDS011;11549;50.852;3.816;2022-10-23T21:44:35;11.15;;;4.32;;
22764;SDS011;11549;50.852;3.816;2022-10-23T21:47:03;9.80;;;3.90;;
22764;SDS011;11549;50.852;3.816;2022-10-23T21:49:33;13.88;;;4.15;;
22764;SDS011;11549;50.852;3.816;2022-10-23T21:52:02;12.95;;;4.88;;
22764;SDS011;11549;50.852;3.816;2022-10-23T21:54:31;10.45;;;4.95;;
22764;SDS011;11549;50.852;3.816;2022-10-23T21:56:59;13.48;;;4.57;;
22764;SDS011;11549;50.852;3.816;2022-10-23T21:59:29;12.15;;;4.20;;
22764;SDS011;11549;50.852;3.816;2022-10-23T22:02:01;10.13;;;4.05;;
22764;SDS011;11549;50.852;3.816;2022-10-23T22:04:29;9.30;;;3.90;;
22764;SDS011;11549;50.852;3.816;2022-10-23T22:06:59;12.50;;;4.88;;
22764;SDS011;11549;50.852;3.816;2022-10-23T22:09:28;11.48;;;3.83;;
22764;SDS011;11549;50.852;3.816;2022-10-23T22:11:57;10.13;;;3.97;;
22764;SDS011;11549;50.852;3.816;2022-10-23T22:14:26;11.20;;;4.20;;
22764;SDS011;11549;50.852;3.816;2022-10-23T22:16:55;12.90;;;3.85;;
22764;SDS011;11549;50.852;3.816;2022-10-23T22:19:23;10.40;;;3.88;;
22764;SDS011;11549;50.852;3.816;2022-10-23T22:21:52;11.68;;;3.60;;
22764;SDS011;11549;50.852;3.816;2022-10-23T22:24:22;9.27;;;3.30;;
22764;SDS011;11549;50.852;3.816;2022-10-23T22:26:52;7.85;;;3.10;;
22764;SDS011;11549;50.852;3.816;2022-10-23T22:29:22;9.32;;;2.60;;
22764;SDS011;11549;50.852;3.816;2022-10-23T22:31:52;10.50;;;3.25;;
22764;SDS011;11549;50.852;3.816;2022-10-23T22:34:21;10.50;;;2.75;;
22764;SDS011;11549;50.852;3.816;2022-10-23T22:37:10;9.77;;;2.75;;
22764;SDS011;11549;50.852;3.816;2022-10-23T22:39:40;6.55;;;2.58;;
22764;SDS011;11549;50.852;3.816;2022-10-23T22:42:09;9.65;;;2.50;;
22764;SDS011;11549;50.852;3.816;2022-10-23T22:44:37;8.02;;;2.53;;
22764;SDS011;11549;50.852;3.816;2022-10-23T22:47:05;10.80;;;2.53;;
22764;SDS011;11549;50.852;3.816;2022-10-23T22:49:34;12.63;;;2.70;;
22764;SDS011;11549;50.852;3.816;2022-10-23T22:52:03;8.82;;;2.03;;
22764;SDS011;11549;50.852;3.816;2022-10-23T22:54:31;9.95;;;2.30;;
22764;SDS011;11549;50.852;3.816;2022-10-23T22:57:01;7.82;;;2.10;;
22764;SDS011;11549;50.852;3.816;2022-10-23T22:59:29;6.72;;;1.90;;
22764;SDS011;11549;50.852;3.816;2022-10-23T23:01:58;8.35;;;1.85;;
22764;SDS011;11549;50.852;3.816;2022-10-23T23:04:26;6.63;;;1.75;;
22764;SDS011;11549;50.852;3.816;2022-10-23T23:07:04;7.93;;;1.80;;
22764;SDS011;11549;50.852;3.816;2022-10-23T23:09:34;4.43;;;1.40;;
22764;SDS011;11549;50.852;3.816;2022-10-23T23:12:05;7.78;;;1.52;;
22764;SDS011;11549;50.852;3.816;2022-10-23T23:14:36;5.78;;;1.33;;
22764;SDS011;11549;50.852;3.816;2022-10-23T23:17:05;6.82;;;1.42;;
22764;SDS011;11549;50.852;3.816;2022-10-23T23:19:34;5.90;;;1.30;;
22764;SDS011;11549;50.852;3.816;2022-10-23T23:22:03;7.97;;;1.65;;
22764;SDS011;11549;50.852;3.816;2022-10-23T23:24:31;6.57;;;1.30;;
22764;SDS011;11549;50.852;3.816;2022-10-23T23:27:00;5.32;;;1.38;;
22764;SDS011;11549;50.852;3.816;2022-10-23T23:29:29;5.70;;;1.60;;
22764;SDS011;11549;50.852;3.816;2022-10-23T23:31:58;8.48;;;1.50;;
22764;SDS011;11549;50.852;3.816;2022-10-23T23:34:27;4.57;;;1.63;;
22764;SDS011;11549;50.852;3.816;2022-10-23T23:36:55;7.90;;;1.80;;
22764;SDS011;11549;50.852;3.816;2022-10-23T23:39:24;10.00;;;1.95;;
22764;SDS011;11549;50.852;3.816;2022-10-23T23:41:54;6.70;;;2.00;;
22764;SDS011;11549;50.852;3.816;2022-10-23T23:44:22;7.28;;;2.05;;
22764;SDS011;11549;50.852;3.816;2022-10-23T23:46:52;8.00;;;2.08;;
22764;SDS011;11549;50.852;3.816;2022-10-23T23:49:21;7.63;;;2.25;;
22764;SDS011;11549;50.852;3.816;2022-10-23T23:51:49;8.63;;;2.40;;
22764;SDS011;11549;50.852;3.816;2022-10-23T23:54:19;6.18;;;2.03;;
22764;SDS011;11549;50.852;3.816;2022-10-23T23:56:47;5.88;;;2.08;;
22764;SDS011;11549;50.852;3.816;2022-10-23T23:59:15;7.68;;;2.30;;
